sensor_id;sensor_type;location;lat;lon;timestamp;P1;durP1;ratioP1;P2;durP2;ratioP2
72209;SDS011;60113;48.762;12.302;2024-02-23T00:01:26;17.38;;;13.18;;
72209;SDS011;60113;48.762;12.302;2024-02-23T00:03:51;19.23;;;14.50;;
72209;SDS011;60113;48.762;12.302;2024-02-23T00:06:18;27.45;;;16.65;;
72209;SDS011;60113;48.762;12.302;2024-02-23T00:08:45;25.30;;;17.67;;
72209;SDS011;60113;48.762;12.302;2024-02-23T00:11:10;19.40;;;12.63;;
72209;SDS011;60113;48.762;12.302;2024-02-23T00:13:36;17.58;;;12.85;;
72209;SDS011;60113;48.762;12.302;2024-02-23T00:16:02;8.60;;;5.65;;
72209;SDS011;60113;48.762;12.302;2024-02-23T00:18:27;7.28;;;5.53;;
72209;SDS011;60113;48.762;12.302;2024-02-23T00:20:53;12.00;;;8.45;;
72209;SDS011;60113;48.762;12.302;2024-02-23T00:23:19;12.32;;;8.98;;
72209;SDS011;60113;48.762;12.302;2024-02-23T00:25:44;15.55;;;11.32;;
72209;SDS011;60113;48.762;12.302;2024-02-23T00:28:10;13.95;;;11.20;;
72209;SDS011;60113;48.762;12.302;2024-02-23T00:30:35;19.00;;;12.50;;
72209;SDS011;60113;48.762;12.302;2024-02-23T00:33:01;16.15;;;11.73;;
72209;SDS011;60113;48.762;12.302;2024-02-23T00:35:26;15.27;;;11.07;;
72209;SDS011;60113;48.762;12.302;2024-02-23T00:37:52;8.18;;;6.28;;
72209;SDS011;60113;48.762;12.302;2024-02-23T00:40:17;10.05;;;5.90;;
72209;SDS011;60113;48.762;12.302;2024-02-23T00:42:43;10.38;;;5.50;;
72209;SDS011;60113;48.762;12.302;2024-02-23T00:45:08;9.55;;;6.95;;
72209;SDS011;60113;48.762;12.302;2024-02-23T00:47:34;5.93;;;3.95;;
72209;SDS011;60113;48.762;12.302;2024-02-23T00:50:00;9.45;;;6.97;;
72209;SDS011;60113;48.762;12.302;2024-02-23T00:52:27;11.65;;;6.32;;
72209;SDS011;60113;48.762;12.302;2024-02-23T00:54:52;11.35;;;6.90;;
72209;SDS011;60113;48.762;12.302;2024-02-23T00:57:18;9.75;;;6.55;;
72209;SDS011;60113;48.762;12.302;2024-02-23T00:59:48;7.00;;;5.45;;
72209;SDS011;60113;48.762;12.302;2024-02-23T01:02:15;8.98;;;5.85;;
72209;SDS011;60113;48.762;12.302;2024-02-23T01:04:41;4.22;;;3.28;;
72209;SDS011;60113;48.762;12.302;2024-02-23T01:07:06;5.07;;;3.60;;
72209;SDS011;60113;48.762;12.302;2024-02-23T01:09:31;4.13;;;3.10;;
72209;SDS011;60113;48.762;12.302;2024-02-23T01:11:57;4.55;;;2.75;;
72209;SDS011;60113;48.762;12.302;2024-02-23T01:14:22;2.25;;;1.70;;
72209;SDS011;60113;48.762;12.302;2024-02-23T01:16:48;1.83;;;1.40;;
72209;SDS011;60113;48.762;12.302;2024-02-23T01:19:13;1.40;;;1.00;;
72209;SDS011;60113;48.762;12.302;2024-02-23T01:21:40;1.17;;;0.80;;
72209;SDS011;60113;48.762;12.302;2024-02-23T01:24:06;1.75;;;0.70;;
72209;SDS011;60113;48.762;12.302;2024-02-23T01:26:31;2.75;;;0.77;;
72209;SDS011;60113;48.762;12.302;2024-02-23T01:28:57;3.75;;;0.77;;
72209;SDS011;60113;48.762;12.302;2024-02-23T01:31:22;1.10;;;0.70;;
72209;SDS011;60113;48.762;12.302;2024-02-23T01:33:47;0.80;;;0.60;;
72209;SDS011;60113;48.762;12.302;2024-02-23T01:36:14;2.05;;;0.70;;
72209;SDS011;60113;48.762;12.302;2024-02-23T01:38:40;0.73;;;0.50;;
72209;SDS011;60113;48.762;12.302;2024-02-23T01:41:07;2.38;;;0.52;;
72209;SDS011;60113;48.762;12.302;2024-02-23T01:43:33;0.80;;;0.50;;
72209;SDS011;60113;48.762;12.302;2024-02-23T01:45:59;0.85;;;0.40;;
72209;SDS011;60113;48.762;12.302;2024-02-23T01:48:25;0.70;;;0.60;;
72209;SDS011;60113;48.762;12.302;2024-02-23T01:50:51;0.98;;;0.50;;
72209;SDS011;60113;48.762;12.302;2024-02-23T01:53:16;1.38;;;0.45;;
72209;SDS011;60113;48.762;12.302;2024-02-23T01:55:45;0.85;;;0.70;;
72209;SDS011;60113;48.762;12.302;2024-02-23T01:58:12;0.30;;;0.28;;
72209;SDS011;60113;48.762;12.302;2024-02-23T02:00:37;0.43;;;0.30;;
72209;SDS011;60113;48.762;12.302;2024-02-23T02:03:04;0.47;;;0.20;;
72209;SDS011;60113;48.762;12.302;2024-02-23T02:05:30;0.88;;;0.50;;
72209;SDS011;60113;48.762;12.302;2024-02-23T02:07:56;0.30;;;0.20;;
72209;SDS011;60113;48.762;12.302;2024-02-23T02:10:25;0.63;;;0.20;;
72209;SDS011;60113;48.762;12.302;2024-02-23T02:12:52;0.73;;;0.20;;
72209;SDS011;60113;48.762;12.302;2024-02-23T02:15:18;1.83;;;0.40;;
72209;SDS011;60113;48.762;12.302;2024-02-23T02:17:43;1.45;;;0.20;;
72209;SDS011;60113;48.762;12.302;2024-02-23T02:20:11;1.27;;;0.30;;
72209;SDS011;60113;48.762;12.302;2024-02-23T02:22:37;2.35;;;0.35;;
72209;SDS011;60113;48.762;12.302;2024-02-23T02:25:03;0.85;;;0.17;;
72209;SDS011;60113;48.762;12.302;2024-02-23T02:27:29;1.65;;;0.10;;
72209;SDS011;60113;48.762;12.302;2024-02-23T02:29:56;0.00;;;0.00;;
72209;SDS011;60113;48.762;12.302;2024-02-23T02:32:22;0.73;;;0.20;;
72209;SDS011;60113;48.762;12.302;2024-02-23T02:34:48;1.67;;;0.40;;
72209;SDS011;60113;48.762;12.302;2024-02-23T02:37:15;0.10;;;0.10;;
72209;SDS011;60113;48.762;12.302;2024-02-23T02:39:40;1.95;;;0.22;;
72209;SDS011;60113;48.762;12.302;2024-02-23T02:42:07;1.70;;;0.20;;
72209;SDS011;60113;48.762;12.302;2024-02-23T02:44:33;0.10;;;0.10;;
72209;SDS011;60113;48.762;12.302;2024-02-23T02:46:58;0.38;;;0.10;;
72209;SDS011;60113;48.762;12.302;2024-02-23T02:49:24;0.32;;;0.10;;
72209;SDS011;60113;48.762;12.302;2024-02-23T02:51:49;0.28;;;0.10;;
72209;SDS011;60113;48.762;12.302;2024-02-23T02:54:15;3.33;;;0.20;;
72209;SDS011;60113;48.762;12.302;2024-02-23T02:56:44;1.92;;;0.20;;
72209;SDS011;60113;48.762;12.302;2024-02-23T02:59:11;0.22;;;0.10;;
72209;SDS011;60113;48.762;12.302;2024-02-23T03:01:37;9.88;;;0.30;;
72209;SDS011;60113;48.762;12.302;2024-02-23T03:04:02;3.15;;;0.15;;
72209;SDS011;60113;48.762;12.302;2024-02-23T03:06:27;2.15;;;0.20;;
72209;SDS011;60113;48.762;12.302;2024-02-23T03:08:53;1.10;;;0.17;;
72209;SDS011;60113;48.762;12.302;2024-02-23T03:11:18;1.38;;;0.30;;
72209;SDS011;60113;48.762;12.302;2024-02-23T03:13:44;4.25;;;0.32;;
72209;SDS011;60113;48.762;12.302;2024-02-23T03:16:20;1.95;;;0.30;;
72209;SDS011;60113;48.762;12.302;2024-02-23T03:18:48;1.80;;;0.30;;
72209;SDS011;60113;48.762;12.302;2024-02-23T03:21:14;1.42;;;0.15;;
72209;SDS011;60113;48.762;12.302;2024-02-23T03:23:40;0.93;;;0.20;;
72209;SDS011;60113;48.762;12.302;2024-02-23T03:26:06;1.05;;;0.20;;
72209;SDS011;60113;48.762;12.302;2024-02-23T03:28:32;2.38;;;0.38;;
72209;SDS011;60113;48.762;12.302;2024-02-23T03:30:58;1.95;;;0.20;;
72209;SDS011;60113;48.762;12.302;2024-02-23T03:33:25;1.65;;;0.30;;
72209;SDS011;60113;48.762;12.302;2024-02-23T03:35:50;3.45;;;0.30;;
72209;SDS011;60113;48.762;12.302;2024-02-23T03:38:16;4.55;;;0.40;;
72209;SDS011;60113;48.762;12.302;2024-02-23T03:40:41;2.30;;;0.20;;
72209;SDS011;60113;48.762;12.302;2024-02-23T03:43:07;3.20;;;0.20;;
72209;SDS011;60113;48.762;12.302;2024-02-23T03:45:32;0.60;;;0.10;;
72209;SDS011;60113;48.762;12.302;2024-02-23T03:47:58;1.38;;;0.30;;
72209;SDS011;60113;48.762;12.302;2024-02-23T03:50:24;1.95;;;0.30;;
72209;SDS011;60113;48.762;12.302;2024-02-23T03:52:50;1.00;;;0.20;;
72209;SDS011;60113;48.762;12.302;2024-02-23T03:55:15;1.70;;;0.75;;
72209;SDS011;60113;48.762;12.302;2024-02-23T03:57:41;3.30;;;0.22;;
72209;SDS011;60113;48.762;12.302;2024-02-23T04:00:06;1.63;;;0.20;;
72209;SDS011;60113;48.762;12.302;2024-02-23T04:02:33;1.80;;;0.50;;
72209;SDS011;60113;48.762;12.302;2024-02-23T04:04:59;3.72;;;0.40;;
72209;SDS011;60113;48.762;12.302;2024-02-23T04:07:25;2.85;;;0.20;;
72209;SDS011;60113;48.762;12.302;2024-02-23T04:09:50;2.22;;;0.20;;
72209;SDS011;60113;48.762;12.302;2024-02-23T04:12:19;2.70;;;0.30;;
72209;SDS011;60113;48.762;12.302;2024-02-23T04:14:45;0.40;;;0.20;;
72209;SDS011;60113;48.762;12.302;2024-02-23T04:17:11;3.15;;;0.40;;
72209;SDS011;60113;48.762;12.302;2024-02-23T04:19:37;2.70;;;0.57;;
72209;SDS011;60113;48.762;12.302;2024-02-23T04:22:02;2.83;;;0.50;;
72209;SDS011;60113;48.762;12.302;2024-02-23T04:24:29;3.30;;;0.43;;
72209;SDS011;60113;48.762;12.302;2024-02-23T04:26:54;1.05;;;0.30;;
72209;SDS011;60113;48.762;12.302;2024-02-23T04:29:20;3.75;;;0.40;;
72209;SDS011;60113;48.762;12.302;2024-02-23T04:31:45;3.35;;;0.60;;
72209;SDS011;60113;48.762;12.302;2024-02-23T04:34:10;3.95;;;0.50;;
72209;SDS011;60113;48.762;12.302;2024-02-23T04:36:36;2.75;;;0.40;;
72209;SDS011;60113;48.762;12.302;2024-02-23T04:39:01;3.83;;;0.32;;
72209;SDS011;60113;48.762;12.302;2024-02-23T04:41:27;2.45;;;0.40;;
72209;SDS011;60113;48.762;12.302;2024-02-23T04:43:53;1.52;;;0.30;;
72209;SDS011;60113;48.762;12.302;2024-02-23T04:46:23;3.75;;;0.50;;
72209;SDS011;60113;48.762;12.302;2024-02-23T04:48:49;3.33;;;0.55;;
72209;SDS011;60113;48.762;12.302;2024-02-23T04:51:14;1.10;;;0.40;;
72209;SDS011;60113;48.762;12.302;2024-02-23T04:53:39;2.95;;;0.68;;
72209;SDS011;60113;48.762;12.302;2024-02-23T04:56:05;3.10;;;0.90;;
72209;SDS011;60113;48.762;12.302;2024-02-23T04:58:30;4.03;;;0.80;;
72209;SDS011;60113;48.762;12.302;2024-02-23T05:00:56;1.80;;;0.52;;
72209;SDS011;60113;48.762;12.302;2024-02-23T05:03:22;1.75;;;0.40;;
72209;SDS011;60113;48.762;12.302;2024-02-23T05:05:47;1.83;;;0.50;;
72209;SDS011;60113;48.762;12.302;2024-02-23T05:08:14;1.05;;;0.30;;
72209;SDS011;60113;48.762;12.302;2024-02-23T05:10:40;3.13;;;0.60;;
72209;SDS011;60113;48.762;12.302;2024-02-23T05:13:05;3.58;;;0.63;;
72209;SDS011;60113;48.762;12.302;2024-02-23T05:15:31;2.70;;;0.50;;
72209;SDS011;60113;48.762;12.302;2024-02-23T05:17:57;3.63;;;0.50;;
72209;SDS011;60113;48.762;12.302;2024-02-23T05:20:24;1.75;;;0.52;;
72209;SDS011;60113;48.762;12.302;2024-02-23T05:22:49;3.28;;;0.70;;
72209;SDS011;60113;48.762;12.302;2024-02-23T05:25:14;1.35;;;0.40;;
72209;SDS011;60113;48.762;12.302;2024-02-23T05:27:40;10.13;;;2.25;;
72209;SDS011;60113;48.762;12.302;2024-02-23T05:30:05;29.08;;;14.30;;
72209;SDS011;60113;48.762;12.302;2024-02-23T05:32:31;23.65;;;14.13;;
72209;SDS011;60113;48.762;12.302;2024-02-23T05:34:57;12.65;;;6.35;;
72209;SDS011;60113;48.762;12.302;2024-02-23T05:37:22;7.10;;;3.03;;
72209;SDS011;60113;48.762;12.302;2024-02-23T05:39:49;4.05;;;2.40;;
72209;SDS011;60113;48.762;12.302;2024-02-23T05:42:14;7.90;;;1.75;;
72209;SDS011;60113;48.762;12.302;2024-02-23T05:44:42;4.70;;;2.20;;
72209;SDS011;60113;48.762;12.302;2024-02-23T05:47:08;5.05;;;1.73;;
72209;SDS011;60113;48.762;12.302;2024-02-23T05:49:35;6.30;;;2.28;;
72209;SDS011;60113;48.762;12.302;2024-02-23T05:52:00;3.53;;;1.20;;
72209;SDS011;60113;48.762;12.302;2024-02-23T05:54:26;4.47;;;1.60;;
72209;SDS011;60113;48.762;12.302;2024-02-23T05:56:51;3.83;;;1.92;;
72209;SDS011;60113;48.762;12.302;2024-02-23T05:59:17;3.00;;;0.88;;
72209;SDS011;60113;48.762;12.302;2024-02-23T06:01:42;5.75;;;2.05;;
72209;SDS011;60113;48.762;12.302;2024-02-23T06:04:09;7.55;;;2.45;;
72209;SDS011;60113;48.762;12.302;2024-02-23T06:06:34;3.85;;;2.35;;
72209;SDS011;60113;48.762;12.302;2024-02-23T06:08:59;12.80;;;7.47;;
72209;SDS011;60113;48.762;12.302;2024-02-23T06:11:25;2.78;;;1.17;;
72209;SDS011;60113;48.762;12.302;2024-02-23T06:13:51;6.18;;;2.47;;
72209;SDS011;60113;48.762;12.302;2024-02-23T06:16:16;5.50;;;2.00;;
72209;SDS011;60113;48.762;12.302;2024-02-23T06:18:42;7.32;;;1.52;;
72209;SDS011;60113;48.762;12.302;2024-02-23T06:21:14;2.40;;;1.35;;
72209;SDS011;60113;48.762;12.302;2024-02-23T06:23:42;4.25;;;2.10;;
72209;SDS011;60113;48.762;12.302;2024-02-23T06:26:07;3.60;;;1.05;;
72209;SDS011;60113;48.762;12.302;2024-02-23T06:28:33;4.80;;;1.40;;
72209;SDS011;60113;48.762;12.302;2024-02-23T06:31:05;9.20;;;3.05;;
72209;SDS011;60113;48.762;12.302;2024-02-23T06:33:31;5.60;;;3.25;;
72209;SDS011;60113;48.762;12.302;2024-02-23T06:35:56;5.65;;;2.97;;
72209;SDS011;60113;48.762;12.302;2024-02-23T06:38:22;6.35;;;2.85;;
72209;SDS011;60113;48.762;12.302;2024-02-23T06:40:47;8.27;;;2.75;;
72209;SDS011;60113;48.762;12.302;2024-02-23T06:43:13;6.80;;;2.80;;
72209;SDS011;60113;48.762;12.302;2024-02-23T06:45:38;7.28;;;2.92;;
72209;SDS011;60113;48.762;12.302;2024-02-23T06:48:04;6.05;;;1.77;;
72209;SDS011;60113;48.762;12.302;2024-02-23T06:50:30;5.95;;;2.88;;
72209;SDS011;60113;48.762;12.302;2024-02-23T06:52:55;9.45;;;4.90;;
72209;SDS011;60113;48.762;12.302;2024-02-23T06:55:21;13.60;;;6.68;;
72209;SDS011;60113;48.762;12.302;2024-02-23T06:57:46;9.07;;;5.07;;
72209;SDS011;60113;48.762;12.302;2024-02-23T07:00:12;5.88;;;3.45;;
72209;SDS011;60113;48.762;12.302;2024-02-23T07:02:38;7.13;;;3.70;;
72209;SDS011;60113;48.762;12.302;2024-02-23T07:05:04;3.60;;;2.38;;
72209;SDS011;60113;48.762;12.302;2024-02-23T07:07:31;6.35;;;2.97;;
72209;SDS011;60113;48.762;12.302;2024-02-23T07:09:58;8.63;;;2.70;;
72209;SDS011;60113;48.762;12.302;2024-02-23T07:12:24;5.03;;;2.05;;
72209;SDS011;60113;48.762;12.302;2024-02-23T07:14:52;6.68;;;2.63;;
72209;SDS011;60113;48.762;12.302;2024-02-23T07:17:17;10.20;;;3.17;;
72209;SDS011;60113;48.762;12.302;2024-02-23T07:19:43;10.13;;;3.25;;
72209;SDS011;60113;48.762;12.302;2024-02-23T07:22:09;6.10;;;2.90;;
72209;SDS011;60113;48.762;12.302;2024-02-23T07:24:39;9.02;;;3.63;;
72209;SDS011;60113;48.762;12.302;2024-02-23T07:27:05;9.63;;;3.67;;
72209;SDS011;60113;48.762;12.302;2024-02-23T07:29:31;4.97;;;2.67;;
72209;SDS011;60113;48.762;12.302;2024-02-23T07:31:56;7.00;;;3.63;;
72209;SDS011;60113;48.762;12.302;2024-02-23T07:34:21;4.95;;;2.97;;
72209;SDS011;60113;48.762;12.302;2024-02-23T07:36:47;4.60;;;2.45;;
72209;SDS011;60113;48.762;12.302;2024-02-23T07:39:13;4.82;;;2.10;;
72209;SDS011;60113;48.762;12.302;2024-02-23T07:41:39;2.88;;;1.50;;
72209;SDS011;60113;48.762;12.302;2024-02-23T07:44:04;2.08;;;1.42;;
72209;SDS011;60113;48.762;12.302;2024-02-23T07:46:29;2.97;;;1.10;;
72209;SDS011;60113;48.762;12.302;2024-02-23T07:48:55;3.15;;;1.25;;
72209;SDS011;60113;48.762;12.302;2024-02-23T07:51:20;3.17;;;1.50;;
72209;SDS011;60113;48.762;12.302;2024-02-23T07:53:45;5.15;;;1.35;;
72209;SDS011;60113;48.762;12.302;2024-02-23T07:56:11;6.53;;;2.28;;
72209;SDS011;60113;48.762;12.302;2024-02-23T07:58:38;10.02;;;4.65;;
72209;SDS011;60113;48.762;12.302;2024-02-23T08:01:03;2.50;;;1.10;;
72209;SDS011;60113;48.762;12.302;2024-02-23T08:03:29;2.35;;;1.40;;
72209;SDS011;60113;48.762;12.302;2024-02-23T08:05:54;4.70;;;3.65;;
72209;SDS011;60113;48.762;12.302;2024-02-23T08:08:20;2.38;;;1.75;;
72209;SDS011;60113;48.762;12.302;2024-02-23T08:10:47;5.93;;;2.78;;
72209;SDS011;60113;48.762;12.302;2024-02-23T08:13:13;3.85;;;2.47;;
72209;SDS011;60113;48.762;12.302;2024-02-23T08:15:38;2.80;;;0.70;;
72209;SDS011;60113;48.762;12.302;2024-02-23T08:18:04;2.70;;;1.08;;
72209;SDS011;60113;48.762;12.302;2024-02-23T08:20:29;1.67;;;0.75;;
72209;SDS011;60113;48.762;12.302;2024-02-23T08:22:55;3.58;;;1.08;;
72209;SDS011;60113;48.762;12.302;2024-02-23T08:25:21;4.88;;;1.65;;
72209;SDS011;60113;48.762;12.302;2024-02-23T08:27:46;3.95;;;1.55;;
72209;SDS011;60113;48.762;12.302;2024-02-23T08:30:13;8.20;;;3.83;;
72209;SDS011;60113;48.762;12.302;2024-02-23T08:32:38;13.50;;;3.60;;
72209;SDS011;60113;48.762;12.302;2024-02-23T08:35:04;4.28;;;2.22;;
72209;SDS011;60113;48.762;12.302;2024-02-23T08:37:30;4.10;;;2.13;;
72209;SDS011;60113;48.762;12.302;2024-02-23T08:39:56;15.98;;;10.38;;
72209;SDS011;60113;48.762;12.302;2024-02-23T08:42:21;10.07;;;4.20;;
72209;SDS011;60113;48.762;12.302;2024-02-23T08:44:47;4.13;;;1.58;;
72209;SDS011;60113;48.762;12.302;2024-02-23T08:47:13;7.18;;;3.65;;
72209;SDS011;60113;48.762;12.302;2024-02-23T08:49:38;4.35;;;3.20;;
72209;SDS011;60113;48.762;12.302;2024-02-23T08:52:04;3.67;;;1.98;;
72209;SDS011;60113;48.762;12.302;2024-02-23T08:54:30;4.85;;;2.38;;
72209;SDS011;60113;48.762;12.302;2024-02-23T08:56:55;4.20;;;2.53;;
72209;SDS011;60113;48.762;12.302;2024-02-23T08:59:21;4.13;;;2.47;;
72209;SDS011;60113;48.762;12.302;2024-02-23T09:01:46;5.20;;;2.25;;
72209;SDS011;60113;48.762;12.302;2024-02-23T09:04:12;3.60;;;1.38;;
72209;SDS011;60113;48.762;12.302;2024-02-23T09:06:38;4.15;;;1.52;;
72209;SDS011;60113;48.762;12.302;2024-02-23T09:09:03;7.55;;;2.03;;
72209;SDS011;60113;48.762;12.302;2024-02-23T09:11:29;3.92;;;1.33;;
72209;SDS011;60113;48.762;12.302;2024-02-23T09:13:55;13.02;;;1.67;;
72209;SDS011;60113;48.762;12.302;2024-02-23T09:16:20;2.63;;;1.10;;
72209;SDS011;60113;48.762;12.302;2024-02-23T09:18:48;2.63;;;1.33;;
72209;SDS011;60113;48.762;12.302;2024-02-23T09:21:14;5.22;;;1.60;;
72209;SDS011;60113;48.762;12.302;2024-02-23T09:23:39;5.03;;;1.88;;
72209;SDS011;60113;48.762;12.302;2024-02-23T09:26:11;2.42;;;0.90;;
72209;SDS011;60113;48.762;12.302;2024-02-23T09:28:36;3.22;;;0.90;;
72209;SDS011;60113;48.762;12.302;2024-02-23T09:31:02;3.38;;;0.85;;
72209;SDS011;60113;48.762;12.302;2024-02-23T09:33:28;3.13;;;0.68;;
72209;SDS011;60113;48.762;12.302;2024-02-23T09:35:54;2.13;;;0.68;;
72209;SDS011;60113;48.762;12.302;2024-02-23T09:38:19;3.67;;;0.70;;
72209;SDS011;60113;48.762;12.302;2024-02-23T09:40:45;2.47;;;1.00;;
72209;SDS011;60113;48.762;12.302;2024-02-23T09:43:11;2.17;;;0.88;;
72209;SDS011;60113;48.762;12.302;2024-02-23T09:45:37;3.20;;;0.70;;
72209;SDS011;60113;48.762;12.302;2024-02-23T09:48:03;1.17;;;0.45;;
72209;SDS011;60113;48.762;12.302;2024-02-23T09:50:30;1.55;;;0.68;;
72209;SDS011;60113;48.762;12.302;2024-02-23T09:52:57;1.48;;;0.40;;
72209;SDS011;60113;48.762;12.302;2024-02-23T09:55:24;2.05;;;0.68;;
72209;SDS011;60113;48.762;12.302;2024-02-23T09:57:51;1.90;;;0.55;;
72209;SDS011;60113;48.762;12.302;2024-02-23T10:00:21;5.13;;;1.00;;
72209;SDS011;60113;48.762;12.302;2024-02-23T10:02:48;3.00;;;0.60;;
72209;SDS011;60113;48.762;12.302;2024-02-23T10:05:14;2.42;;;1.15;;
72209;SDS011;60113;48.762;12.302;2024-02-23T10:07:42;0.52;;;0.40;;
72209;SDS011;60113;48.762;12.302;2024-02-23T10:10:09;1.88;;;0.60;;
72209;SDS011;60113;48.762;12.302;2024-02-23T10:12:36;3.10;;;0.70;;
72209;SDS011;60113;48.762;12.302;2024-02-23T10:15:02;2.80;;;1.10;;
72209;SDS011;60113;48.762;12.302;2024-02-23T10:17:32;3.33;;;1.10;;
72209;SDS011;60113;48.762;12.302;2024-02-23T10:19:59;3.55;;;0.90;;
72209;SDS011;60113;48.762;12.302;2024-02-23T10:22:24;2.22;;;0.85;;
72209;SDS011;60113;48.762;12.302;2024-02-23T10:25:02;2.83;;;0.90;;
72209;SDS011;60113;48.762;12.302;2024-02-23T10:27:41;5.13;;;0.90;;
72209;SDS011;60113;48.762;12.302;2024-02-23T10:30:15;1.67;;;0.70;;
72209;SDS011;60113;48.762;12.302;2024-02-23T10:32:42;3.67;;;1.10;;
72209;SDS011;60113;48.762;12.302;2024-02-23T10:35:16;3.55;;;1.15;;
72209;SDS011;60113;48.762;12.302;2024-02-23T10:41:03;1.83;;;1.00;;
72209;SDS011;60113;48.762;12.302;2024-02-23T10:43:45;2.50;;;0.80;;
72209;SDS011;60113;48.762;12.302;2024-02-23T10:46:20;4.53;;;1.40;;
72209;SDS011;60113;48.762;12.302;2024-02-23T12:35:50;1.67;;;0.70;;
72209;SDS011;60113;48.762;12.302;2024-02-23T12:38:19;0.93;;;0.55;;
72209;SDS011;60113;48.762;12.302;2024-02-23T12:40:45;2.00;;;0.60;;
72209;SDS011;60113;48.762;12.302;2024-02-23T12:43:10;1.88;;;0.70;;
72209;SDS011;60113;48.762;12.302;2024-02-23T12:45:36;2.80;;;0.93;;
72209;SDS011;60113;48.762;12.302;2024-02-23T12:48:02;2.55;;;1.02;;
72209;SDS011;60113;48.762;12.302;2024-02-23T12:50:29;6.68;;;0.82;;
72209;SDS011;60113;48.762;12.302;2024-02-23T12:52:55;8.55;;;1.05;;
72209;SDS011;60113;48.762;12.302;2024-02-23T12:55:20;5.25;;;1.65;;
72209;SDS011;60113;48.762;12.302;2024-02-23T12:57:45;1.98;;;0.70;;
72209;SDS011;60113;48.762;12.302;2024-02-23T13:00:11;5.78;;;1.65;;
72209;SDS011;60113;48.762;12.302;2024-02-23T13:02:37;2.28;;;0.80;;
72209;SDS011;60113;48.762;12.302;2024-02-23T13:05:02;7.32;;;1.67;;
72209;SDS011;60113;48.762;12.302;2024-02-23T13:07:28;1.98;;;1.00;;
72209;SDS011;60113;48.762;12.302;2024-02-23T13:09:53;7.13;;;2.10;;
72209;SDS011;60113;48.762;12.302;2024-02-23T13:12:19;10.00;;;1.83;;
72209;SDS011;60113;48.762;12.302;2024-02-23T13:14:44;2.95;;;0.90;;
72209;SDS011;60113;48.762;12.302;2024-02-23T13:17:10;3.13;;;1.10;;
72209;SDS011;60113;48.762;12.302;2024-02-23T13:19:36;3.30;;;1.67;;
72209;SDS011;60113;48.762;12.302;2024-02-23T13:22:02;3.97;;;1.40;;
72209;SDS011;60113;48.762;12.302;2024-02-23T13:24:28;3.70;;;1.83;;
72209;SDS011;60113;48.762;12.302;2024-02-23T13:26:54;3.95;;;2.05;;
72209;SDS011;60113;48.762;12.302;2024-02-23T13:29:20;4.80;;;2.60;;
72209;SDS011;60113;48.762;12.302;2024-02-23T13:31:46;4.53;;;2.22;;
72209;SDS011;60113;48.762;12.302;2024-02-23T13:34:11;6.22;;;2.28;;
72209;SDS011;60113;48.762;12.302;2024-02-23T13:36:37;6.35;;;1.92;;
72209;SDS011;60113;48.762;12.302;2024-02-23T13:39:04;2.75;;;1.15;;
72209;SDS011;60113;48.762;12.302;2024-02-23T13:41:29;3.38;;;1.42;;
72209;SDS011;60113;48.762;12.302;2024-02-23T13:43:55;1.58;;;0.70;;
72209;SDS011;60113;48.762;12.302;2024-02-23T13:46:20;2.75;;;1.02;;
72209;SDS011;60113;48.762;12.302;2024-02-23T13:48:46;6.15;;;1.60;;
72209;SDS011;60113;48.762;12.302;2024-02-23T13:51:26;3.25;;;1.35;;
72209;SDS011;60113;48.762;12.302;2024-02-23T13:53:52;3.45;;;1.50;;
72209;SDS011;60113;48.762;12.302;2024-02-23T13:56:18;5.13;;;1.50;;
72209;SDS011;60113;48.762;12.302;2024-02-23T13:58:43;3.17;;;1.25;;
72209;SDS011;60113;48.762;12.302;2024-02-23T14:01:09;1.40;;;0.70;;
72209;SDS011;60113;48.762;12.302;2024-02-23T14:03:35;5.47;;;1.33;;
72209;SDS011;60113;48.762;12.302;2024-02-23T14:06:00;5.55;;;2.33;;
72209;SDS011;60113;48.762;12.302;2024-02-23T14:08:26;7.15;;;3.38;;
72209;SDS011;60113;48.762;12.302;2024-02-23T14:10:52;6.30;;;2.03;;
72209;SDS011;60113;48.762;12.302;2024-02-23T14:13:17;4.05;;;1.50;;
72209;SDS011;60113;48.762;12.302;2024-02-23T14:15:45;3.50;;;1.45;;
72209;SDS011;60113;48.762;12.302;2024-02-23T14:18:10;6.13;;;1.15;;
72209;SDS011;60113;48.762;12.302;2024-02-23T14:20:36;7.95;;;1.23;;
72209;SDS011;60113;48.762;12.302;2024-02-23T14:23:01;5.13;;;1.55;;
72209;SDS011;60113;48.762;12.302;2024-02-23T14:25:27;1.70;;;0.70;;
72209;SDS011;60113;48.762;12.302;2024-02-23T14:27:52;4.22;;;0.85;;
72209;SDS011;60113;48.762;12.302;2024-02-23T14:30:20;1.35;;;0.57;;
72209;SDS011;60113;48.762;12.302;2024-02-23T14:32:45;2.47;;;0.70;;
72209;SDS011;60113;48.762;12.302;2024-02-23T14:35:12;2.13;;;0.60;;
72209;SDS011;60113;48.762;12.302;2024-02-23T14:37:38;4.20;;;0.73;;
72209;SDS011;60113;48.762;12.302;2024-02-23T14:40:03;3.72;;;0.50;;
72209;SDS011;60113;48.762;12.302;2024-02-23T14:42:30;1.55;;;0.60;;
72209;SDS011;60113;48.762;12.302;2024-02-23T14:44:55;5.00;;;1.02;;
72209;SDS011;60113;48.762;12.302;2024-02-23T14:47:21;1.38;;;0.63;;
72209;SDS011;60113;48.762;12.302;2024-02-23T14:49:47;4.40;;;0.90;;
72209;SDS011;60113;48.762;12.302;2024-02-23T14:52:13;1.20;;;0.70;;
72209;SDS011;60113;48.762;12.302;2024-02-23T14:54:40;2.17;;;0.90;;
72209;SDS011;60113;48.762;12.302;2024-02-23T14:57:06;1.77;;;0.80;;
72209;SDS011;60113;48.762;12.302;2024-02-23T14:59:33;3.33;;;0.98;;
72209;SDS011;60113;48.762;12.302;2024-02-23T15:02:02;3.05;;;0.90;;
72209;SDS011;60113;48.762;12.302;2024-02-23T15:04:27;5.95;;;1.00;;
72209;SDS011;60113;48.762;12.302;2024-02-23T15:06:53;3.63;;;1.10;;
72209;SDS011;60113;48.762;12.302;2024-02-23T15:09:18;4.93;;;1.35;;
72209;SDS011;60113;48.762;12.302;2024-02-23T15:11:44;2.03;;;0.90;;
72209;SDS011;60113;48.762;12.302;2024-02-23T15:14:10;1.98;;;0.88;;
72209;SDS011;60113;48.762;12.302;2024-02-23T15:16:35;3.97;;;1.40;;
72209;SDS011;60113;48.762;12.302;2024-02-23T15:19:01;2.85;;;0.77;;
72209;SDS011;60113;48.762;12.302;2024-02-23T15:21:27;3.25;;;0.93;;
72209;SDS011;60113;48.762;12.302;2024-02-23T15:23:54;5.68;;;1.02;;
72209;SDS011;60113;48.762;12.302;2024-02-23T15:26:20;3.83;;;1.10;;
72209;SDS011;60113;48.762;12.302;2024-02-23T15:28:46;2.88;;;1.00;;
72209;SDS011;60113;48.762;12.302;2024-02-23T15:31:11;2.40;;;1.23;;
72209;SDS011;60113;48.762;12.302;2024-02-23T15:33:37;6.68;;;1.38;;
72209;SDS011;60113;48.762;12.302;2024-02-23T15:36:07;3.13;;;1.10;;
72209;SDS011;60113;48.762;12.302;2024-02-23T15:38:34;4.53;;;1.35;;
72209;SDS011;60113;48.762;12.302;2024-02-23T15:41:01;2.42;;;1.05;;
72209;SDS011;60113;48.762;12.302;2024-02-23T15:43:26;6.60;;;1.20;;
72209;SDS011;60113;48.762;12.302;2024-02-23T15:45:53;4.32;;;1.20;;
72209;SDS011;60113;48.762;12.302;2024-02-23T15:48:18;2.50;;;1.15;;
72209;SDS011;60113;48.762;12.302;2024-02-23T15:50:44;3.58;;;1.40;;
72209;SDS011;60113;48.762;12.302;2024-02-23T15:53:10;2.78;;;1.20;;
72209;SDS011;60113;48.762;12.302;2024-02-23T15:55:44;2.97;;;1.23;;
72209;SDS011;60113;48.762;12.302;2024-02-23T15:58:09;3.05;;;1.17;;
72209;SDS011;60113;48.762;12.302;2024-02-23T16:00:35;4.57;;;1.30;;
72209;SDS011;60113;48.762;12.302;2024-02-23T16:03:01;4.25;;;1.30;;
72209;SDS011;60113;48.762;12.302;2024-02-23T16:05:27;2.22;;;1.10;;
72209;SDS011;60113;48.762;12.302;2024-02-23T16:07:54;2.90;;;1.17;;
72209;SDS011;60113;48.762;12.302;2024-02-23T16:10:20;5.57;;;1.17;;
72209;SDS011;60113;48.762;12.302;2024-02-23T16:12:49;3.67;;;1.00;;
72209;SDS011;60113;48.762;12.302;2024-02-23T16:15:18;5.78;;;1.65;;
72209;SDS011;60113;48.762;12.302;2024-02-23T16:17:44;2.22;;;1.20;;